sensor_id;sensor_type;location;lat;lon;timestamp;pressure;altitude;pressure_sealevel;temperature;humidity
54948;BME280;41113;41.882;12.530;2022-12-10T00:02:25;99779.16;;;15.77;100.00
54948;BME280;41113;41.882;12.530;2022-12-10T00:04:51;99772.06;;;15.76;100.00
54948;BME280;41113;41.882;12.530;2022-12-10T00:07:16;99776.44;;;15.77;100.00
54948;BME280;41113;41.882;12.530;2022-12-10T00:09:42;99765.63;;;15.77;100.00
54948;BME280;41113;41.882;12.530;2022-12-10T00:12:07;99766.44;;;15.77;100.00
54948;BME280;41113;41.882;12.530;2022-12-10T00:14:32;99757.28;;;15.78;100.00
54948;BME280;41113;41.882;12.530;2022-12-10T00:16:58;99756.47;;;15.78;100.00
54948;BME280;41113;41.882;12.530;2022-12-10T00:19:23;99763.75;;;15.77;100.00
54948;BME280;41113;41.882;12.530;2022-12-10T00:21:49;99763.75;;;15.77;100.00
54948;BME280;41113;41.882;12.530;2022-12-10T00:24:14;99752.91;;;15.77;100.00
54948;BME280;41113;41.882;12.530;2022-12-10T00:26:39;99748.34;;;15.78;100.00
54948;BME280;41113;41.882;12.530;2022-12-10T00:29:07;99747.31;;;15.79;100.00
54948;BME280;41113;41.882;12.530;2022-12-10T00:31:34;99757.94;;;15.80;100.00
54948;BME280;41113;41.882;12.530;2022-12-10T00:34:02;99756.06;;;15.81;100.00
54948;BME280;41113;41.882;12.530;2022-12-10T00:36:31;99753.56;;;15.79;100.00
54948;BME280;41113;41.882;12.530;2022-12-10T00:38:56;99745.00;;;15.76;100.00
54948;BME280;41113;41.882;12.530;2022-12-10T00:41:22;99738.72;;;15.75;100.00
54948;BME280;41113;41.882;12.530;2022-12-10T00:43:48;99742.91;;;15.78;100.00
54948;BME280;41113;41.882;12.530;2022-12-10T00:46:15;99745.44;;;15.79;100.00
54948;BME280;41113;41.882;12.530;2022-12-10T00:48:41;99746.28;;;15.80;100.00
54948;BME280;41113;41.882;12.530;2022-12-10T00:51:09;99736.94;;;15.82;100.00
54948;BME280;41113;41.882;12.530;2022-12-10T00:53:37;99735.06;;;15.83;100.00
54948;BME280;41113;41.882;12.530;2022-12-10T00:56:03;99724.88;;;15.85;100.00
54948;BME280;41113;41.882;12.530;2022-12-10T00:58:30;99726.34;;;15.87;100.00
54948;BME280;41113;41.882;12.530;2022-12-10T01:01:10;99724.91;;;15.92;100.00
54948;BME280;41113;41.882;12.530;2022-12-10T01:03:36;99720.19;;;15.94;100.00
54948;BME280;41113;41.882;12.530;2022-12-10T01:06:30;99716.44;;;15.95;100.00
54948;BME280;41113;41.882;12.530;2022-12-10T01:08:59;99722.69;;;15.95;100.00
54948;BME280;41113;41.882;12.530;2022-12-10T01:11:28;99714.38;;;15.97;100.00
54948;BME280;41113;41.882;12.530;2022-12-10T01:13:54;99710.63;;;15.98;100.00
54948;BME280;41113;41.882;12.530;2022-12-10T01:16:21;99706.88;;;15.99;100.00
54948;BME280;41113;41.882;12.530;2022-12-10T01:18:51;99701.47;;;15.99;100.00
54948;BME280;41113;41.882;12.530;2022-12-10T01:21:18;99701.06;;;16.02;100.00
54948;BME280;41113;41.882;12.530;2022-12-10T01:23:47;99686.91;;;16.00;100.00
54948;BME280;41113;41.882;12.530;2022-12-10T01:26:16;99687.72;;;16.00;100.00
54948;BME280;41113;41.882;12.530;2022-12-10T01:28:42;99688.38;;;16.02;100.00
54948;BME280;41113;41.882;12.530;2022-12-10T01:31:23;99679.41;;;16.02;100.00
54948;BME280;41113;41.882;12.530;2022-12-10T01:33:49;99671.28;;;16.02;100.00
54948;BME280;41113;41.882;12.530;2022-12-10T01:36:17;99678.56;;;16.01;100.00
54948;BME280;41113;41.882;12.530;2022-12-10T01:38:44;99689.41;;;16.01;100.00
54948;BME280;41113;41.882;12.530;2022-12-10T01:41:31;99693.16;;;16.00;100.00
54948;BME280;41113;41.882;12.530;2022-12-10T01:46:40;99665.22;;;16.00;100.00
54948;BME280;41113;41.882;12.530;2022-12-10T01:49:11;99663.34;;;16.00;100.00
54948;BME280;41113;41.882;12.530;2022-12-10T01:51:39;99661.50;;;16.01;100.00
54948;BME280;41113;41.882;12.530;2022-12-10T01:54:11;99659.81;;;16.00;100.00
54948;BME280;41113;41.882;12.530;2022-12-10T01:56:40;99664.19;;;16.01;100.00
54948;BME280;41113;41.882;12.530;2022-12-10T01:59:06;99668.56;;;16.02;100.00
54948;BME280;41113;41.882;12.530;2022-12-10T02:01:45;99675.66;;;16.03;100.00
54948;BME280;41113;41.882;12.530;2022-12-10T02:14:48;99637.78;;;16.09;99.15
54948;BME280;41113;41.882;12.530;2022-12-10T02:17:23;99627.59;;;16.11;98.85
54948;BME280;41113;41.882;12.530;2022-12-10T02:22:22;99599.03;;;16.09;99.08
54948;BME280;41113;41.882;12.530;2022-12-10T02:24:51;99613.41;;;16.09;99.17
54948;BME280;41113;41.882;12.530;2022-12-10T02:30:05;99596.34;;;16.09;99.87
54948;BME280;41113;41.882;12.530;2022-12-10T02:32:39;99606.53;;;16.07;100.00
54948;BME280;41113;41.882;12.530;2022-12-10T02:35:12;99610.28;;;16.06;100.00
54948;BME280;41113;41.882;12.530;2022-12-10T02:37:45;99596.09;;;16.04;100.00
54948;BME280;41113;41.882;12.530;2022-12-10T02:40:18;99605.88;;;16.05;100.00
54948;BME280;41113;41.882;12.530;2022-12-10T02:42:49;99600.47;;;16.05;100.00
54948;BME280;41113;41.882;12.530;2022-12-10T02:45:17;99597.75;;;16.05;100.00
54948;BME280;41113;41.882;12.530;2022-12-10T02:47:43;99579.84;;;16.04;100.00
54948;BME280;41113;41.882;12.530;2022-12-10T02:50:10;99578.59;;;16.06;100.00
54948;BME280;41113;41.882;12.530;2022-12-10T02:52:38;99575.06;;;16.06;100.00
54948;BME280;41113;41.882;12.530;2022-12-10T02:55:03;99571.50;;;16.05;100.00
54948;BME280;41113;41.882;12.530;2022-12-10T02:57:30;99574.22;;;16.05;100.00
54948;BME280;41113;41.882;12.530;2022-12-10T03:08:03;99578.41;;;16.08;100.00
54948;BME280;41113;41.882;12.530;2022-12-10T03:10:47;99593.63;;;16.09;100.00
54948;BME280;41113;41.882;12.530;2022-12-10T03:13:16;99608.19;;;16.08;100.00
54948;BME280;41113;41.882;12.530;2022-12-10T03:15:44;99613.63;;;16.08;100.00
54948;BME280;41113;41.882;12.530;2022-12-10T03:18:12;99633.63;;;16.07;100.00
54948;BME280;41113;41.882;12.530;2022-12-10T03:20:44;99641.94;;;16.05;100.00
54948;BME280;41113;41.882;12.530;2022-12-10T03:23:12;99640.66;;;16.01;100.00
54948;BME280;41113;41.882;12.530;2022-12-10T03:25:39;99639.59;;;15.96;100.00
54948;BME280;41113;41.882;12.530;2022-12-10T03:28:06;99633.88;;;15.91;100.00
54948;BME280;41113;41.882;12.530;2022-12-10T03:30:33;99620.09;;;15.85;100.00
54948;BME280;41113;41.882;12.530;2022-12-10T03:33:02;99602.19;;;15.84;100.00
54948;BME280;41113;41.882;12.530;2022-12-10T03:35:27;99600.06;;;15.80;100.00
54948;BME280;41113;41.882;12.530;2022-12-10T03:37:53;99605.06;;;15.76;100.00
54948;BME280;41113;41.882;12.530;2022-12-10T03:40:22;99594.81;;;15.72;100.00
54948;BME280;41113;41.882;12.530;2022-12-10T03:42:48;99590.00;;;15.67;100.00
54948;BME280;41113;41.882;12.530;2022-12-10T03:45:14;99594.56;;;15.67;100.00
54948;BME280;41113;41.882;12.530;2022-12-10T03:47:40;99595.81;;;15.64;100.00
54948;BME280;41113;41.882;12.530;2022-12-10T03:50:06;99587.03;;;15.62;100.00
54948;BME280;41113;41.882;12.530;2022-12-10T03:52:32;99580.97;;;15.60;100.00
54948;BME280;41113;41.882;12.530;2022-12-10T03:54:57;99576.56;;;15.59;100.00
54948;BME280;41113;41.882;12.530;2022-12-10T03:57:23;99575.75;;;15.59;100.00
54948;BME280;41113;41.882;12.530;2022-12-10T03:59:48;99584.41;;;15.54;100.00
54948;BME280;41113;41.882;12.530;2022-12-10T04:02:14;99582.75;;;15.53;100.00
54948;BME280;41113;41.882;12.530;2022-12-10T04:04:39;99582.75;;;15.53;100.00
54948;BME280;41113;41.882;12.530;2022-12-10T04:07:04;99559.44;;;15.52;100.00
54948;BME280;41113;41.882;12.530;2022-12-10T04:09:30;99546.94;;;15.51;100.00
54948;BME280;41113;41.882;12.530;2022-12-10T04:11:59;99534.44;;;15.50;100.00
54948;BME280;41113;41.882;12.530;2022-12-10T04:14:26;99524.44;;;15.50;100.00
54948;BME280;41113;41.882;12.530;2022-12-10T04:17:10;99521.94;;;15.49;100.00
54948;BME280;41113;41.882;12.530;2022-12-10T04:19:36;99510.47;;;15.47;100.00
54948;BME280;41113;41.882;12.530;2022-12-10T04:22:01;99488.19;;;15.45;100.00
54948;BME280;41113;41.882;12.530;2022-12-10T04:24:45;99486.53;;;15.44;100.00
54948;BME280;41113;41.882;12.530;2022-12-10T04:27:32;99485.69;;;15.43;100.00
54948;BME280;41113;41.882;12.530;2022-12-10T04:29:59;99474.84;;;15.43;100.00
54948;BME280;41113;41.882;12.530;2022-12-10T04:32:26;99483.81;;;15.44;100.00
54948;BME280;41113;41.882;12.530;2022-12-10T04:34:52;99489.22;;;15.44;100.00
54948;BME280;41113;41.882;12.530;2022-12-10T04:37:18;99488.19;;;15.45;100.00
54948;BME280;41113;41.882;12.530;2022-12-10T04:39:44;99498.19;;;15.44;100.00
54948;BME280;41113;41.882;12.530;2022-12-10T04:42:09;99497.34;;;15.44;100.00
54948;BME280;41113;41.882;12.530;2022-12-10T04:44:35;99484.66;;;15.44;100.00
54948;BME280;41113;41.882;12.530;2022-12-10T04:47:00;99474.03;;;15.43;100.00
54948;BME280;41113;41.882;12.530;2022-12-10T04:49:26;99475.69;;;15.44;100.00
54948;BME280;41113;41.882;12.530;2022-12-10T04:51:52;99470.69;;;15.41;100.00
54948;BME280;41113;41.882;12.530;2022-12-10T04:54:18;99474.41;;;15.40;100.00
54948;BME280;41113;41.882;12.530;2022-12-10T04:56:44;99487.31;;;15.38;100.00
54948;BME280;41113;41.882;12.530;2022-12-10T04:59:10;99504.38;;;15.38;100.00
54948;BME280;41113;41.882;12.530;2022-12-10T05:01:36;99513.34;;;15.39;100.00
54948;BME280;41113;41.882;12.530;2022-12-10T05:04:04;99520.63;;;15.38;100.00
54948;BME280;41113;41.882;12.530;2022-12-10T05:06:30;99524.78;;;15.41;100.00
54948;BME280;41113;41.882;12.530;2022-12-10T05:08:56;99517.72;;;15.40;100.00
54948;BME280;41113;41.882;12.530;2022-12-10T05:11:25;99526.66;;;15.40;100.00
54948;BME280;41113;41.882;12.530;2022-12-10T05:13:52;99522.28;;;15.39;100.00
54948;BME280;41113;41.882;12.530;2022-12-10T05:16:19;99532.91;;;15.41;100.00
54948;BME280;41113;41.882;12.530;2022-12-10T05:18:45;99526.47;;;15.42;100.00
54948;BME280;41113;41.882;12.530;2022-12-10T05:21:13;99515.44;;;15.43;100.00
54948;BME280;41113;41.882;12.530;2022-12-10T05:23:42;99511.50;;;15.46;100.00
54948;BME280;41113;41.882;12.530;2022-12-10T05:26:18;99506.09;;;15.46;100.00
54948;BME280;41113;41.882;12.530;2022-12-10T05:28:49;99501.09;;;15.43;100.00
54948;BME280;41113;41.882;12.530;2022-12-10T05:31:28;99491.94;;;15.44;100.00
54948;BME280;41113;41.882;12.530;2022-12-10T05:33:55;99488.19;;;15.45;100.00
54948;BME280;41113;41.882;12.530;2022-12-10T05:36:23;99482.78;;;15.45;100.00
54948;BME280;41113;41.882;12.530;2022-12-10T05:38:49;99479.03;;;15.46;100.00
54948;BME280;41113;41.882;12.530;2022-12-10T05:41:20;99469.06;;;15.46;100.00
54948;BME280;41113;41.882;12.530;2022-12-10T05:43:46;99471.56;;;15.48;100.00
54948;BME280;41113;41.882;12.530;2022-12-10T05:46:14;99467.38;;;15.45;100.00
54948;BME280;41113;41.882;12.530;2022-12-10T05:48:40;99460.09;;;15.46;100.00
54948;BME280;41113;41.882;12.530;2022-12-10T05:51:11;99471.97;;;15.45;100.00
54948;BME280;41113;41.882;12.530;2022-12-10T05:53:37;99478.19;;;15.45;100.00
54948;BME280;41113;41.882;12.530;2022-12-10T05:56:05;99481.09;;;15.44;100.00
54948;BME280;41113;41.882;12.530;2022-12-10T05:58:31;99484.84;;;15.43;100.00
54948;BME280;41113;41.882;12.530;2022-12-10T06:00:57;99476.94;;;15.41;100.00
54948;BME280;41113;41.882;12.530;2022-12-10T06:03:24;99470.69;;;15.41;100.00
54948;BME280;41113;41.882;12.530;2022-12-10T06:05:49;99467.97;;;15.41;100.00
54948;BME280;41113;41.882;12.530;2022-12-10T06:08:15;99458.19;;;15.40;100.00
54948;BME280;41113;41.882;12.530;2022-12-10T06:10:40;99457.16;;;15.41;100.00
54948;BME280;41113;41.882;12.530;2022-12-10T06:13:06;99459.84;;;15.41;100.00
54948;BME280;41113;41.882;12.530;2022-12-10T06:15:31;99460.50;;;15.43;100.00
54948;BME280;41113;41.882;12.530;2022-12-10T06:17:58;99461.53;;;15.42;100.00
54948;BME280;41113;41.882;12.530;2022-12-10T06:20:24;99457.78;;;15.43;100.00
54948;BME280;41113;41.882;12.530;2022-12-10T06:22:50;99466.53;;;15.45;100.00
54948;BME280;41113;41.882;12.530;2022-12-10T06:25:16;99462.81;;;15.46;100.00
54948;BME280;41113;41.882;12.530;2022-12-10T06:27:42;99466.16;;;15.48;100.00
54948;BME280;41113;41.882;12.530;2022-12-10T06:30:08;99460.72;;;15.48;100.00
54948;BME280;41113;41.882;12.530;2022-12-10T06:32:33;99466.16;;;15.48;100.00
54948;BME280;41113;41.882;12.530;2022-12-10T06:34:59;99462.41;;;15.49;100.00
54948;BME280;41113;41.882;12.530;2022-12-10T06:37:24;99464.91;;;15.50;100.00
54948;BME280;41113;41.882;12.530;2022-12-10T06:39:51;99460.34;;;15.51;100.00
54948;BME280;41113;41.882;12.530;2022-12-10T06:42:17;99470.31;;;15.50;100.00
54948;BME280;41113;41.882;12.530;2022-12-10T06:44:42;99449.50;;;15.51;100.00
54948;BME280;41113;41.882;12.530;2022-12-10T06:47:08;99442.44;;;15.50;100.00
54948;BME280;41113;41.882;12.530;2022-12-10T06:49:33;99449.50;;;15.51;100.00
54948;BME280;41113;41.882;12.530;2022-12-10T06:51:58;99438.69;;;15.51;100.00
54948;BME280;41113;41.882;12.530;2022-12-10T06:54:24;99442.22;;;15.51;100.00
54948;BME280;41113;41.882;12.530;2022-12-10T06:56:50;99444.09;;;15.51;100.00
54948;BME280;41113;41.882;12.530;2022-12-10T06:59:15;99449.50;;;15.51;100.00
54948;BME280;41113;41.882;12.530;2022-12-10T07:01:41;99445.13;;;15.50;100.00
54948;BME280;41113;41.882;12.530;2022-12-10T07:04:07;99443.47;;;15.49;100.00
54948;BME280;41113;41.882;12.530;2022-12-10T07:06:33;99458.88;;;15.48;100.00
54948;BME280;41113;41.882;12.530;2022-12-10T07:08:58;99457.84;;;15.49;100.00
54948;BME280;41113;41.882;12.530;2022-12-10T07:11:25;99453.25;;;15.50;100.00
54948;BME280;41113;41.882;12.530;2022-12-10T07:13:51;99454.94;;;15.51;100.00
54948;BME280;41113;41.882;12.530;2022-12-10T07:16:22;99437.03;;;15.50;100.00
54948;BME280;41113;41.882;12.530;2022-12-10T07:18:48;99436.19;;;15.49;100.00
54948;BME280;41113;41.882;12.530;2022-12-10T07:21:20;99432.84;;;15.47;100.00
54948;BME280;41113;41.882;12.530;2022-12-10T07:23:46;99420.34;;;15.46;100.00
54948;BME280;41113;41.882;12.530;2022-12-10T07:26:12;99407.66;;;15.47;100.00
54948;BME280;41113;41.882;12.530;2022-12-10T07:28:38;99408.69;;;15.46;100.00
54948;BME280;41113;41.882;12.530;2022-12-10T07:31:05;99415.78;;;15.47;100.00
54948;BME280;41113;41.882;12.530;2022-12-10T07:33:31;99409.53;;;15.46;100.00
54948;BME280;41113;41.882;12.530;2022-12-10T07:35:56;99419.50;;;15.46;100.00
54948;BME280;41113;41.882;12.530;2022-12-10T07:38:25;99419.50;;;15.46;100.00
54948;BME280;41113;41.882;12.530;2022-12-10T07:40:51;99413.06;;;15.47;100.00
54948;BME280;41113;41.882;12.530;2022-12-10T07:43:17;99407.84;;;15.45;100.00
54948;BME280;41113;41.882;12.530;2022-12-10T07:45:43;99405.97;;;15.46;100.00
54948;BME280;41113;41.882;12.530;2022-12-10T07:48:09;99408.69;;;15.46;100.00
54948;BME280;41113;41.882;12.530;2022-12-10T07:50:34;99414.94;;;15.46;100.00
54948;BME280;41113;41.882;12.530;2022-12-10T07:52:59;99409.31;;;15.48;100.00
54948;BME280;41113;41.882;12.530;2022-12-10T07:55:25;99410.34;;;15.47;100.00
54948;BME280;41113;41.882;12.530;2022-12-10T07:57:50;99404.13;;;15.46;100.00
54948;BME280;41113;41.882;12.530;2022-12-10T08:00:16;99394.97;;;15.47;100.00
54948;BME280;41113;41.882;12.530;2022-12-10T08:02:42;99394.97;;;15.47;100.00
54948;BME280;41113;41.882;12.530;2022-12-10T08:05:08;99392.06;;;15.49;100.00
54948;BME280;41113;41.882;12.530;2022-12-10T08:07:33;99392.69;;;15.51;100.00
54948;BME280;41113;41.882;12.530;2022-12-10T08:09:59;99379.16;;;15.51;100.00
54948;BME280;41113;41.882;12.530;2022-12-10T08:12:24;99372.06;;;15.50;100.00
54948;BME280;41113;41.882;12.530;2022-12-10T08:14:50;99374.59;;;15.51;100.00
54948;BME280;41113;41.882;12.530;2022-12-10T08:17:15;99371.88;;;15.51;100.00
54948;BME280;41113;41.882;12.530;2022-12-10T08:19:40;99373.75;;;15.51;100.00
54948;BME280;41113;41.882;12.530;2022-12-10T08:22:06;99373.75;;;15.51;100.00
54948;BME280;41113;41.882;12.530;2022-12-10T08:24:31;99371.03;;;15.51;100.00
54948;BME280;41113;41.882;12.530;2022-12-10T08:26:57;99360.84;;;15.53;100.00
54948;BME280;41113;41.882;12.530;2022-12-10T08:29:22;99357.50;;;15.51;100.00
54948;BME280;41113;41.882;12.530;2022-12-10T08:31:48;99362.94;;;15.51;100.00
54948;BME280;41113;41.882;12.530;2022-12-10T08:34:16;99357.50;;;15.51;100.00
54948;BME280;41113;41.882;12.530;2022-12-10T08:36:42;99352.50;;;15.48;100.00
54948;BME280;41113;41.882;12.530;2022-12-10T08:39:08;99358.75;;;15.48;100.00
54948;BME280;41113;41.882;12.530;2022-12-10T08:41:35;99345.41;;;15.47;100.00
54948;BME280;41113;41.882;12.530;2022-12-10T08:44:01;99350.59;;;15.42;100.00
54948;BME280;41113;41.882;12.530;2022-12-10T08:46:27;99345.00;;;15.43;100.00
54948;BME280;41113;41.882;12.530;2022-12-10T08:48:54;99339.78;;;15.42;100.00
54948;BME280;41113;41.882;12.530;2022-12-10T08:51:20;99331.66;;;15.42;100.00
54948;BME280;41113;41.882;12.530;2022-12-10T08:53:46;99334.38;;;15.42;100.00
54948;BME280;41113;41.882;12.530;2022-12-10T08:56:11;99335.84;;;15.44;100.00
54948;BME280;41113;41.882;12.530;2022-12-10T08:58:38;99331.25;;;15.45;100.00
54948;BME280;41113;41.882;12.530;2022-12-10T09:01:08;99336.47;;;15.46;100.00
54948;BME280;41113;41.882;12.530;2022-12-10T09:03:35;99341.44;;;15.43;100.00
54948;BME280;41113;41.882;12.530;2022-12-10T09:06:03;99349.13;;;15.39;100.00
54948;BME280;41113;41.882;12.530;2022-12-10T09:08:28;99350.38;;;15.37;100.00
54948;BME280;41113;41.882;12.530;2022-12-10T09:10:54;99349.53;;;15.36;100.00
54948;BME280;41113;41.882;12.530;2022-12-10T09:13:19;99330.81;;;15.35;100.00
54948;BME280;41113;41.882;12.530;2022-12-10T09:15:51;99327.47;;;15.33;100.00
54948;BME280;41113;41.882;12.530;2022-12-10T09:18:17;99333.50;;;15.35;100.00
54948;BME280;41113;41.882;12.530;2022-12-10T09:20:43;99313.34;;;15.37;100.00
54948;BME280;41113;41.882;12.530;2022-12-10T09:23:08;99316.03;;;15.37;100.00
54948;BME280;41113;41.882;12.530;2022-12-10T09:25:33;99301.28;;;15.40;100.00
54948;BME280;41113;41.882;12.530;2022-12-10T09:27:59;99299.19;;;15.42;100.00
54948;BME280;41113;41.882;12.530;2022-12-10T09:30:24;99294.22;;;15.45;100.00
54948;BME280;41113;41.882;12.530;2022-12-10T09:32:50;99291.31;;;15.47;100.00
54948;BME280;41113;41.882;12.530;2022-12-10T09:35:15;99292.97;;;15.48;100.00
54948;BME280;41113;41.882;12.530;2022-12-10T09:37:40;99283.41;;;15.52;100.00
54948;BME280;41113;41.882;12.530;2022-12-10T09:40:06;99280.50;;;15.53;100.00
54948;BME280;41113;41.882;12.530;2022-12-10T09:43:06;99273.84;;;15.56;100.00
54948;BME280;41113;41.882;12.530;2022-12-10T09:51:21;99240.63;;;15.69;100.00
54948;BME280;41113;41.882;12.530;2022-12-10T09:53:48;99248.56;;;15.77;100.00
54948;BME280;41113;41.882;12.530;2022-12-10T09:56:23;99243.56;;;15.80;100.00
54948;BME280;41113;41.882;12.530;2022-12-10T09:58:51;99236.47;;;15.79;100.00
54948;BME280;41113;41.882;12.530;2022-12-10T10:01:19;99227.31;;;15.80;100.00
54948;BME280;41113;41.882;12.530;2022-12-10T10:03:48;99226.06;;;15.83;100.00
54948;BME280;41113;41.882;12.530;2022-12-10T10:06:14;99218.38;;;15.86;100.00
54948;BME280;41113;41.882;12.530;2022-12-10T10:08:42;99212.53;;;15.90;100.00
54948;BME280;41113;41.882;12.530;2022-12-10T10:11:18;99202.34;;;15.92;100.00
54948;BME280;41113;41.882;12.530;2022-12-10T10:13:58;99191.50;;;15.92;100.00
54948;BME280;41113;41.882;12.530;2022-12-10T10:16:33;99186.94;;;15.92;100.00
54948;BME280;41113;41.882;12.530;2022-12-10T10:19:03;99173.84;;;15.96;100.00
54948;BME280;41113;41.882;12.530;2022-12-10T10:21:39;99170.28;;;15.95;100.00
54948;BME280;41113;41.882;12.530;2022-12-10T10:24:07;99152.38;;;16.01;100.00
54948;BME280;41113;41.882;12.530;2022-12-10T10:26:36;99145.72;;;16.03;100.00
54948;BME280;41113;41.882;12.530;2022-12-10T10:29:07;99143.22;;;16.02;100.00
54948;BME280;41113;41.882;12.530;2022-12-10T10:31:35;99141.13;;;16.04;100.00
54948;BME280;41113;41.882;12.530;2022-12-10T10:34:05;99136.31;;;16.06;100.00
54948;BME280;41113;41.882;12.530;2022-12-10T10:36:35;99136.94;;;16.08;100.00
54948;BME280;41113;41.882;12.530;2022-12-10T10:39:31;99129.88;;;16.07;100.00
54948;BME280;41113;41.882;12.530;2022-12-10T10:41:59;99120.28;;;16.11;100.00
54948;BME280;41113;41.882;12.530;2022-12-10T10:44:27;99111.94;;;16.19;100.00
54948;BME280;41113;41.882;12.530;2022-12-10T10:46:55;99090.22;;;16.26;100.00
54948;BME280;41113;41.882;12.530;2022-12-10T10:51:50;99086.25;;;16.41;100.00
54948;BME280;41113;41.882;12.530;2022-12-10T10:57:11;99059.31;;;16.60;100.00
54948;BME280;41113;41.882;12.530;2022-12-10T10:59:37;99059.09;;;16.68;100.00
54948;BME280;41113;41.882;12.530;2022-12-10T11:02:24;99056.31;;;16.81;100.00
54948;BME280;41113;41.882;12.530;2022-12-10T11:04:53;99060.41;;;16.90;100.00
54948;BME280;41113;41.882;12.530;2022-12-10T11:07:26;99060.38;;;17.03;100.00
54948;BME280;41113;41.882;12.530;2022-12-10T11:09:58;99052.63;;;17.07;100.00
54948;BME280;41113;41.882;12.530;2022-12-10T11:12:33;99049.25;;;17.11;100.00
54948;BME280;41113;41.882;12.530;2022-12-10T11:14:59;99055.13;;;17.08;100.00
54948;BME280;41113;41.882;12.530;2022-12-10T11:17:26;99037.41;;;17.06;100.00
54948;BME280;41113;41.882;12.530;2022-12-10T11:19:58;99037.00;;;17.02;100.00
54948;BME280;41113;41.882;12.530;2022-12-10T11:22:32;99033.06;;;16.98;100.00
54948;BME280;41113;41.882;12.530;2022-12-10T11:24:59;99028.69;;;16.97;100.00
54948;BME280;41113;41.882;12.530;2022-12-10T11:27:29;99017.69;;;16.92;100.00
54948;BME280;41113;41.882;12.530;2022-12-10T11:30:25;99010.38;;;16.86;100.00
54948;BME280;41113;41.882;12.530;2022-12-10T11:33:39;98999.16;;;16.83;100.00
54948;BME280;41113;41.882;12.530;2022-12-10T11:36:02;98994.38;;;16.78;100.00
54948;BME280;41113;41.882;12.530;2022-12-10T11:41:38;98993.81;;;16.63;100.00
54948;BME280;41113;41.882;12.530;2022-12-10T11:44:16;98974.69;;;16.51;100.00
54948;BME280;41113;41.882;12.530;2022-12-10T11:47:06;98965.72;;;16.50;100.00
54948;BME280;41113;41.882;12.530;2022-12-10T11:52:42;98951.31;;;16.57;100.00
54948;BME280;41113;41.882;12.530;2022-12-10T12:00:52;98923.16;;;16.58;100.00
54948;BME280;41113;41.882;12.530;2022-12-10T12:03:47;98919.66;;;16.50;100.00
54948;BME280;41113;41.882;12.530;2022-12-10T12:14:54;98918.88;;;16.43;100.00
54948;BME280;41113;41.882;12.530;2022-12-10T12:17:34;98915.47;;;16.55;100.00
54948;BME280;41113;41.882;12.530;2022-12-10T12:20:25;98916.28;;;16.62;100.00
54948;BME280;41113;41.882;12.530;2022-12-10T12:25:42;98904.59;;;16.61;100.00
54948;BME280;41113;41.882;12.530;2022-12-10T12:28:42;98918.78;;;16.57;100.00
54948;BME280;41113;41.882;12.530;2022-12-10T12:31:16;98921.31;;;16.52;100.00
54948;BME280;41113;41.882;12.530;2022-12-10T12:33:59;98958.03;;;16.47;100.00
54948;BME280;41113;41.882;12.530;2022-12-10T12:36:32;98954.13;;;16.37;100.00
54948;BME280;41113;41.882;12.530;2022-12-10T12:39:11;98972.34;;;16.16;100.00
54948;BME280;41113;41.882;12.530;2022-12-10T12:49:47;98952.09;;;15.68;100.00
54948;BME280;41113;41.882;12.530;2022-12-10T12:52:36;98953.34;;;15.65;100.00
54948;BME280;41113;41.882;12.530;2022-12-10T12:55:22;98944.59;;;15.63;100.00
54948;BME280;41113;41.882;12.530;2022-12-10T12:57:58;98953.34;;;15.65;100.00
54948;BME280;41113;41.882;12.530;2022-12-10T13:00:28;98954.16;;;15.59;100.00
54948;BME280;41113;41.882;12.530;2022-12-10T13:03:17;98965.41;;;15.69;100.00
54948;BME280;41113;41.882;12.530;2022-12-10T13:05:45;98960.81;;;15.76;100.00
54948;BME280;41113;41.882;12.530;2022-12-10T13:10:59;98962.84;;;15.87;100.00
54948;BME280;41113;41.882;12.530;2022-12-10T13:15:53;98949.50;;;15.93;100.00
54948;BME280;41113;41.882;12.530;2022-12-10T13:23:48;98946.94;;;16.11;100.00
54948;BME280;41113;41.882;12.530;2022-12-10T13:26:26;98958.22;;;16.08;100.00
54948;BME280;41113;41.882;12.530;2022-12-10T13:28:53;98962.81;;;16.01;100.00
54948;BME280;41113;41.882;12.530;2022-12-10T13:31:41;98969.72;;;15.97;100.00
54948;BME280;41113;41.882;12.530;2022-12-10T13:34:23;98962.84;;;15.94;100.00
54948;BME280;41113;41.882;12.530;2022-12-10T13:45:02;98979.13;;;15.74;100.00
54948;BME280;41113;41.882;12.530;2022-12-10T13:50:01;98982.50;;;15.63;100.00
54948;BME280;41113;41.882;12.530;2022-12-10T13:52:44;98981.66;;;15.69;100.00
54948;BME280;41113;41.882;12.530;2022-12-10T13:55:37;98989.53;;;15.77;100.00
54948;BME280;41113;41.882;12.530;2022-12-10T14:06:47;98990.56;;;15.76;100.00
54948;BME280;41113;41.882;12.530;2022-12-10T14:09:20;98982.03;;;15.79;100.00
54948;BME280;41113;41.882;12.530;2022-12-10T14:11:59;98987.03;;;15.82;100.00
54948;BME280;41113;41.882;12.530;2022-12-10T14:14:45;98992.84;;;15.79;100.00
54948;BME280;41113;41.882;12.530;2022-12-10T14:17:16;98998.47;;;15.78;100.00
54948;BME280;41113;41.882;12.530;2022-12-10T14:19:44;98988.28;;;15.73;100.00
54948;BME280;41113;41.882;12.530;2022-12-10T14:22:29;98994.56;;;15.67;100.00
54948;BME280;41113;41.882;12.530;2022-12-10T14:24:59;98992.28;;;15.64;100.00
54948;BME280;41113;41.882;12.530;2022-12-10T14:27:26;98998.88;;;15.55;100.00
54948;BME280;41113;41.882;12.530;2022-12-10T14:29:58;98996.19;;;15.55;100.00
54948;BME280;41113;41.882;12.530;2022-12-10T14:32:35;98992.03;;;15.59;100.00